Time;durP1;ratioP1;P1;durP2;ratioP2;P2;SDS_P1;SDS_P2;PMS_P1;PMS_P2;Temp;Humidity;BMP_temperature;BMP_pressure;BME280_temperature;BME280_humidity;BME280_pressure;Samples;Min_cycle;Max_cycle;Signal;HPM_P1;HPM_P2
2024/02/18 11:09:30;;;;;;;11.52;4.30;;;;;;;10.53;84.33;100693.69;4760542;30;20450;-77
2024/02/18 11:12:00;;;;;;;7.82;4.75;;;;;;;10.51;84.29;100684.16;4768275;30;20142;-76
2024/02/18 11:14:28;;;;;;;9.48;4.78;;;;;;;10.48;83.89;100692.16;4767938;30;20084;-75
2024/02/18 11:16:56;;;;;;;10.98;4.53;;;;;;;10.47;84.21;100683.41;4768170;30;20091;-76
2024/02/18 11:19:25;;;;;;;7.78;4.72;;;;;;;10.46;84.34;100681.69;4768087;30;20475;-77
2024/02/18 11:21:54;;;;;;;9.43;4.63;;;;;;;10.47;84.64;100670.25;4767782;30;20514;-77
2024/02/18 11:24:24;;;;;;;11.63;5.05;;;;;;;10.46;84.52;100655.38;4768308;30;20156;-77
2024/02/18 11:26:51;;;;;;;9.75;5.00;;;;;;;10.49;84.92;100660.50;4768432;30;20060;-77
2024/02/18 11:29:18;;;;;;;7.50;4.55;;;;;;;10.49;84.98;100655.25;4767665;30;20052;-74
2024/02/18 11:31:44;;;;;;;8.70;4.85;;;;;;;10.49;84.74;100660.50;4768120;30;20146;-76
2024/02/18 11:34:11;;;;;;;12.10;4.78;;;;;;;10.50;84.55;100648.22;4768091;30;20052;-80
2024/02/18 11:36:38;;;;;;;10.43;4.95;;;;;;;10.50;84.49;100653.50;4767973;30;20064;-76
2024/02/18 11:39:06;;;;;;;10.07;4.72;;;;;;;10.49;84.73;100631.56;4767738;30;20047;-82
2024/02/18 11:41:36;;;;;;;7.25;4.57;;;;;;;10.51;84.95;100642.03;4767539;30;20478;-77
2024/02/18 11:44:10;;;;;;;7.40;4.88;;;;;;;10.49;84.25;100620.16;4768128;30;20063;-77
2024/02/18 11:46:49;;;;;;;13.85;5.25;;;;;;;10.49;84.19;100623.66;4768058;30;20133;-77
2024/02/18 11:49:16;;;;;;;8.82;4.70;;;;;;;10.52;84.75;100612.16;4767814;30;20150;-76
2024/02/18 11:51:43;;;;;;;11.05;4.55;;;;;;;10.51;84.16;100613.06;4767903;30;20453;-77
2024/02/18 11:54:09;;;;;;;8.95;4.88;;;;;;;10.48;83.95;100614.06;4769317;30;20573;-76
2024/02/18 11:56:36;;;;;;;9.60;4.55;;;;;;;10.47;83.81;100609.69;4771452;30;20079;-75
2024/02/18 11:59:03;;;;;;;9.27;5.07;;;;;;;10.43;83.83;100603.69;4771512;30;20056;-76
2024/02/18 12:01:30;;;;;;;8.68;4.60;;;;;;;10.41;84.13;100605.53;4771297;30;20060;-74
2024/02/18 12:03:58;;;;;;;10.15;4.85;;;;;;;10.40;84.17;100592.44;4771211;30;20052;-76
2024/02/18 12:06:25;;;;;;;10.20;5.20;;;;;;;10.37;84.14;100605.72;4770760;30;20063;-77
2024/02/18 12:08:55;;;;;;;9.85;5.43;;;;;;;10.34;84.15;100588.28;4796305;29;20058;-76
2024/02/18 12:11:27;;;;;;;11.27;5.47;;;;;;;10.31;84.25;100591.03;4811646;29;20051;-81
2024/02/18 12:13:54;;;;;;;10.77;5.45;;;;;;;10.29;84.05;100583.22;4806630;29;20418;-78
2024/02/18 12:16:20;;;;;;;9.15;5.38;;;;;;;10.27;84.08;100582.44;4806747;29;20059;-77
2024/02/18 12:18:49;;;;;;;9.98;5.57;;;;;;;10.24;84.16;100571.19;4806401;29;20058;-74
2024/02/18 12:21:17;;;;;;;8.02;4.90;;;;;;;10.20;83.85;100549.41;4806498;29;20129;-77
2024/02/18 12:23:44;;;;;;;10.13;4.97;;;;;;;10.18;84.19;100556.53;4806317;29;20086;-79
2024/02/18 12:26:12;;;;;;;12.32;5.10;;;;;;;10.14;84.22;100547.88;4806070;29;20047;-75
2024/02/18 12:28:39;;;;;;;9.05;4.93;;;;;;;10.12;84.41;100539.22;4806441;29;20144;-76
2024/02/18 12:31:06;;;;;;;12.43;5.47;;;;;;;10.12;84.67;100519.94;4806325;29;20094;-75
2024/02/18 12:33:33;;;;;;;12.10;5.78;;;;;;;10.10;84.54;100506.00;4806177;29;20050;-74
2024/02/18 12:36:00;;;;;;;8.40;5.38;;;;;;;10.09;84.96;100502.50;4806200;29;20119;-75
2024/02/18 12:38:27;;;;;;;8.85;5.47;;;;;;;10.11;85.28;100491.94;4806123;29;20063;-78
2024/02/18 12:40:56;;;;;;;7.95;4.70;;;;;;;10.13;85.68;100479.56;4806165;29;20059;-76
2024/02/18 12:43:27;;;;;;;13.20;5.50;;;;;;;10.14;85.38;100473.38;4805927;29;20050;-73
2024/02/18 12:46:14;;;;;;;10.07;5.10;;;;;;;10.20;84.88;100474.91;4805901;29;20058;-76
2024/02/18 12:48:41;;;;;;;6.57;4.75;;;;;;;10.20;84.90;100457.31;4805378;29;20059;-75
2024/02/18 12:51:13;;;;;;;10.05;5.30;;;;;;;10.20;84.93;100449.44;4805975;29;20051;-80
2024/02/18 12:53:41;;;;;;;7.35;4.80;;;;;;;10.22;85.24;100437.06;4805572;29;20116;-74
2024/02/18 12:56:11;;;;;;;9.43;5.65;;;;;;;10.25;85.43;100438.72;4805044;29;20523;-76
2024/02/18 12:58:39;;;;;;;10.00;5.63;;;;;;;10.24;84.92;100427.31;4803671;29;20047;-74
2024/02/18 13:01:08;;;;;;;7.75;4.78;;;;;;;10.25;85.26;100429.00;4805222;29;20197;-73
2024/02/18 13:03:37;;;;;;;9.98;5.05;;;;;;;10.27;84.88;100426.31;4805095;29;20134;-73
2024/02/18 13:06:04;;;;;;;8.52;4.63;;;;;;;10.25;84.55;100407.97;4788284;29;20520;-74
2024/02/18 13:08:32;;;;;;;10.35;4.82;;;;;;;10.23;84.23;100391.41;4804957;29;20154;-75
2024/02/18 13:10:59;;;;;;;6.82;5.03;;;;;;;10.25;84.52;100393.97;4805006;29;20463;-72
2024/02/18 13:13:27;;;;;;;10.65;5.40;;;;;;;10.24;84.45;100390.47;4804866;29;20066;-73
2024/02/18 13:15:54;;;;;;;10.68;5.55;;;;;;;10.24;85.02;100364.16;4803903;29;20058;-73
2024/02/18 13:18:21;;;;;;;5.32;4.20;;;;;;;10.24;84.96;100363.34;4804758;29;20059;-76
2024/02/18 13:20:47;;;;;;;9.63;5.07;;;;;;;10.25;84.90;100362.41;4805013;29;20656;-74
2024/02/18 13:23:14;;;;;;;6.88;4.38;;;;;;;10.25;85.32;100351.88;4804812;29;20090;-73
2024/02/18 13:25:40;;;;;;;5.95;4.78;;;;;;;10.24;84.81;100348.38;4804860;29;20131;-72
2024/02/18 13:28:07;;;;;;;6.22;4.70;;;;;;;10.25;84.74;100344.81;4804473;29;20165;-75
2024/02/18 13:30:34;;;;;;;10.45;4.63;;;;;;;10.25;84.59;100352.72;4804798;29;20054;-73
2024/02/18 13:33:02;;;;;;;10.02;4.63;;;;;;;10.24;84.48;100323.88;4804667;29;20421;-73
2024/02/18 13:35:29;;;;;;;8.00;4.72;;;;;;;10.22;84.40;100321.31;4804516;29;20054;-72
2024/02/18 13:37:56;;;;;;;8.88;4.28;;;;;;;10.22;84.17;100323.94;4804112;29;20104;-73
2024/02/18 13:40:22;;;;;;;9.20;4.65;;;;;;;10.20;84.29;100324.94;4804480;29;20534;-76
2024/02/18 13:42:49;;;;;;;6.13;4.25;;;;;;;10.19;84.40;100324.06;4804330;29;20149;-76
2024/02/18 13:45:16;;;;;;;7.40;4.35;;;;;;;10.16;84.05;100337.34;4804606;29;20053;-75
2024/02/18 13:47:43;;;;;;;11.95;5.15;;;;;;;10.12;84.09;100326.13;4804060;29;20086;-75
2024/02/18 13:50:10;;;;;;;7.38;4.68;;;;;;;10.10;83.98;100296.41;4804303;29;20111;-72
2024/02/18 13:52:37;;;;;;;7.93;4.50;;;;;;;10.10;84.43;100300.81;4804236;29;20094;-74
2024/02/18 13:55:04;;;;;;;6.28;4.47;;;;;;;10.07;84.44;100295.69;4804205;29;20143;-73
2024/02/18 13:57:31;;;;;;;6.78;4.43;;;;;;;10.03;84.24;100266.91;4804052;29;20545;-75
2024/02/18 13:59:58;;;;;;;10.60;4.32;;;;;;;10.00;84.19;100271.47;4804324;29;20055;-74
2024/02/18 14:02:24;;;;;;;6.63;4.40;;;;;;;9.99;84.25;100269.75;4804096;29;20166;-74
2024/02/18 14:04:51;;;;;;;7.40;4.82;;;;;;;9.96;84.53;100254.97;4804171;29;20079;-73
2024/02/18 14:07:23;;;;;;;7.65;4.05;;;;;;;9.94;84.75;100248.91;4803384;29;20059;-74
2024/02/18 14:09:49;;;;;;;10.40;4.32;;;;;;;9.93;84.71;100251.63;4803466;29;20089;-75
2024/02/18 14:12:16;;;;;;;8.98;4.28;;;;;;;9.93;84.91;100252.47;4803964;29;20055;-74
2024/02/18 14:14:48;;;;;;;9.32;4.13;;;;;;;9.90;84.71;100239.47;4804048;29;20054;-74
2024/02/18 14:17:15;;;;;;;10.02;4.32;;;;;;;9.89;85.03;100243.88;4802994;29;20070;-76
2024/02/18 14:19:41;;;;;;;8.93;4.55;;;;;;;9.87;84.80;100237.84;4803903;29;20054;-75
2024/02/18 14:22:08;;;;;;;9.40;4.88;;;;;;;9.86;84.97;100227.38;4803697;29;20090;-74
2024/02/18 14:24:35;;;;;;;9.10;4.55;;;;;;;9.85;85.21;100228.31;4804010;29;20059;-76
2024/02/18 14:27:03;;;;;;;6.18;3.90;;;;;;;9.84;85.30;100210.84;4803718;29;20063;-73
2024/02/18 14:29:30;;;;;;;10.50;4.20;;;;;;;9.82;85.14;100205.66;4802676;29;20109;-74
2024/02/18 14:31:56;;;;;;;11.60;4.60;;;;;;;9.80;85.16;100209.28;4803704;29;20066;-74
2024/02/18 14:34:23;;;;;;;9.73;4.10;;;;;;;9.78;85.02;100210.22;4803741;29;20108;-73
2024/02/18 14:36:49;;;;;;;8.95;4.03;;;;;;;9.76;85.21;100203.31;4801998;29;20092;-76
2024/02/18 14:39:16;;;;;;;9.95;5.40;;;;;;;9.75;85.51;100201.59;4803650;29;20058;-75
2024/02/18 14:41:43;;;;;;;10.18;4.43;;;;;;;9.72;85.53;100202.59;4803527;29;20112;-74
2024/02/18 14:44:09;;;;;;;6.10;4.10;;;;;;;9.71;85.79;100190.38;4803676;29;20046;-74
2024/02/18 14:46:36;;;;;;;7.03;4.45;;;;;;;9.71;85.89;100187.75;4803313;29;20058;-75
2024/02/18 14:49:02;;;;;;;9.10;4.20;;;;;;;9.69;86.28;100176.47;4803547;29;20058;-75
2024/02/18 14:51:29;;;;;;;8.10;4.72;;;;;;;9.71;86.11;100168.47;4803752;29;20094;-73
2024/02/18 14:53:56;;;;;;;13.20;4.50;;;;;;;9.71;86.24;100168.47;4803732;29;20104;-73
2024/02/18 14:56:23;;;;;;;8.32;4.15;;;;;;;9.70;86.18;100156.25;4803714;29;20819;-73
2024/02/18 14:58:50;;;;;;;6.93;4.65;;;;;;;9.70;86.35;100151.88;4803345;29;20058;-73
2024/02/18 15:01:17;;;;;;;6.50;4.68;;;;;;;9.72;86.13;100154.44;4802277;29;20059;-73
2024/02/18 15:03:44;;;;;;;6.95;4.20;;;;;;;9.70;86.27;100141.38;4803222;29;20414;-75
2024/02/18 15:06:12;;;;;;;6.82;4.25;;;;;;;9.70;86.27;100141.38;4803593;29;20050;-75
2024/02/18 15:08:39;;;;;;;6.88;4.07;;;;;;;9.70;86.31;100125.59;4803230;29;20062;-75
2024/02/18 15:11:05;;;;;;;8.80;4.25;;;;;;;9.69;86.36;100129.16;4803483;29;20107;-77
2024/02/18 15:13:32;;;;;;;9.13;4.53;;;;;;;9.68;86.35;100122.16;4802305;29;20141;-77
2024/02/18 15:15:59;;;;;;;8.27;4.03;;;;;;;9.67;86.46;100115.22;4803477;29;20055;-76
2024/02/18 15:18:25;;;;;;;8.32;4.30;;;;;;;9.68;86.50;100106.38;4801924;29;20138;-75
2024/02/18 15:20:53;;;;;;;6.10;3.95;;;;;;;9.67;86.37;100093.31;4803865;29;20054;-76
2024/02/18 15:23:20;;;;;;;9.38;4.90;;;;;;;9.67;86.71;100093.31;4803514;29;20077;-76
2024/02/18 15:25:50;;;;;;;7.35;4.00;;;;;;;9.66;86.68;100089.84;4803527;29;20051;-76
2024/02/18 15:28:17;;;;;;;7.97;4.18;;;;;;;9.67;86.75;100098.56;4803771;29;20108;-75
2024/02/18 15:30:44;;;;;;;7.65;4.28;;;;;;;9.67;86.77;100078.41;4806269;29;20312;-75
2024/02/18 15:33:10;;;;;;;11.55;4.53;;;;;;;9.67;86.88;100065.25;4806893;29;20058;-74
2024/02/18 15:35:39;;;;;;;8.23;5.00;;;;;;;9.64;86.75;100073.28;4806886;29;20059;-76
2024/02/18 15:38:06;;;;;;;9.52;4.93;;;;;;;9.65;86.55;100064.50;4806628;29;20409;-74
2024/02/18 15:40:32;;;;;;;8.30;4.28;;;;;;;9.65;86.83;100078.47;4806883;29;20063;-73
2024/02/18 15:42:59;;;;;;;6.30;4.30;;;;;;;9.63;86.81;100063.72;4806441;29;20141;-76
2024/02/18 15:45:26;;;;;;;8.90;4.65;;;;;;;9.62;86.94;100065.50;4806432;29;20058;-75
2024/02/18 15:47:53;;;;;;;8.90;4.43;;;;;;;9.61;87.05;100044.56;4806438;29;20058;-75
2024/02/18 15:50:19;;;;;;;8.48;4.50;;;;;;;9.62;86.96;100041.84;4806641;29;20059;-75
2024/02/18 15:55:26;;;;;;;10.43;4.28;;;;;;;9.61;87.08;100034.03;4823953;29;20046;-79
2024/02/18 15:57:54;;;;;;;8.88;4.57;;;;;;;9.61;87.34;100023.53;4824405;29;20145;-80
2024/02/18 16:00:20;;;;;;;8.00;4.13;;;;;;;9.60;87.18;100025.28;4824640;29;20051;-79
2024/02/18 16:02:47;;;;;;;8.20;3.92;;;;;;;9.62;87.34;100014.72;4824342;29;20153;-78
2024/02/18 16:05:15;;;;;;;4.47;3.67;;;;;;;9.59;87.33;100005.19;4824505;29;20149;-78
2024/02/18 16:07:42;;;;;;;6.47;3.83;;;;;;;9.61;87.41;99994.63;4824190;29;20058;-79
2024/02/18 16:10:09;;;;;;;5.00;3.72;;;;;;;9.62;87.53;100012.06;4824293;29;20088;-78
2024/02/18 16:12:36;;;;;;;5.93;3.65;;;;;;;9.62;87.48;99988.44;4824214;29;20090;-78
2024/02/18 16:15:03;;;;;;;5.30;3.70;;;;;;;9.64;87.42;99989.19;4824203;29;20054;-78
2024/02/18 16:17:30;;;;;;;6.45;4.00;;;;;;;9.62;87.43;99970.88;4823971;29;20464;-80
2024/02/18 16:19:57;;;;;;;5.30;3.75;;;;;;;9.64;87.76;99961.13;4824279;29;20065;-79
2024/02/18 16:22:23;;;;;;;4.88;4.00;;;;;;;9.65;87.69;99946.22;4824121;29;20053;-79
2024/02/18 16:24:50;;;;;;;5.55;4.03;;;;;;;9.67;87.91;99951.38;4823809;29;20058;-77
2024/02/18 16:27:17;;;;;;;5.72;3.92;;;;;;;9.68;87.83;99946.06;4823780;29;20062;-77
2024/02/18 16:29:43;;;;;;;4.32;3.58;;;;;;;9.71;87.84;99934.53;4823929;29;20054;-78
2024/02/18 16:32:11;;;;;;;6.38;4.15;;;;;;;9.71;87.83;99926.63;4823990;29;20050;-79
2024/02/18 16:34:38;;;;;;;5.82;3.90;;;;;;;9.73;87.88;99930.06;4824094;29;20065;-79
2024/02/18 16:37:05;;;;;;;6.30;4.30;;;;;;;9.73;87.83;99917.78;4823505;29;20711;-78
2024/02/18 16:39:34;;;;;;;6.85;4.60;;;;;;;9.74;87.71;99916.84;4807187;29;20121;-79
2024/02/18 16:42:02;;;;;;;5.38;4.30;;;;;;;9.74;88.15;99906.31;4823390;29;20062;-80
2024/02/18 16:44:29;;;;;;;4.72;4.32;;;;;;;9.79;88.03;99903.44;4823556;29;20516;-79
2024/02/18 16:46:59;;;;;;;7.38;4.95;;;;;;;9.77;88.08;99897.44;4823575;29;20056;-79
2024/02/18 16:49:26;;;;;;;6.07;4.32;;;;;;;9.81;88.12;99898.13;4823472;29;20086;-78
2024/02/18 16:51:53;;;;;;;5.40;4.90;;;;;;;9.82;88.01;99898.03;4822374;29;20140;-78
2024/02/18 16:54:19;;;;;;;7.32;5.38;;;;;;;9.82;88.19;99881.41;4807218;29;20521;-79
2024/02/18 16:56:46;;;;;;;5.82;5.22;;;;;;;9.85;88.24;99876.84;4807446;29;20054;-79
2024/02/18 16:59:12;;;;;;;6.20;5.40;;;;;;;9.84;88.28;99874.31;4823535;29;20417;-77
2024/02/18 17:01:51;;;;;;;6.35;5.78;;;;;;;9.83;88.10;99869.97;4807296;29;20069;-80
2024/02/18 17:04:18;;;;;;;7.18;6.03;;;;;;;9.88;88.66;99874.03;4823412;29;20142;-79
2024/02/18 17:06:44;;;;;;;10.02;6.72;;;;;;;9.90;88.62;99866.06;4823006;29;20114;-79
2024/02/18 17:09:12;;;;;;;9.48;7.75;;;;;;;9.91;88.53;99870.44;4823533;29;20051;-78
2024/02/18 17:11:39;;;;;;;8.02;7.28;;;;;;;9.92;88.78;99864.25;4823465;29;20058;-82
2024/02/18 17:14:05;;;;;;;8.40;7.35;;;;;;;9.95;88.83;99855.34;4823078;29;20051;-81
2024/02/18 17:16:35;;;;;;;8.95;7.80;;;;;;;9.96;88.80;99865.78;4806909;29;20138;-80
2024/02/18 17:19:08;;;;;;;8.85;8.05;;;;;;;9.97;89.01;99862.22;4823110;29;20050;-80
2024/02/18 17:21:36;;;;;;;11.07;9.95;;;;;;;10.01;89.22;99858.47;4823353;29;20056;-80
2024/02/18 17:24:03;;;;;;;11.00;9.93;;;;;;;10.02;89.43;99844.41;4822950;29;20536;-81
2024/02/18 17:26:31;;;;;;;11.50;10.25;;;;;;;10.06;89.49;99865.28;4823085;29;20058;-80
2024/02/18 17:28:57;;;;;;;12.93;11.52;;;;;;;10.07;90.18;99859.09;4822645;29;20477;-81
2024/02/18 17:31:25;;;;;;;13.45;11.90;;;;;;;10.12;90.33;99841.28;4822939;29;20489;-81
2024/02/18 17:33:54;;;;;;;13.43;12.00;;;;;;;10.17;90.39;99845.34;4822978;29;20596;-80
2024/02/18 17:36:23;;;;;;;16.02;12.80;;;;;;;10.21;90.77;99850.47;4823123;29;20054;-81
2024/02/18 17:38:50;;;;;;;14.30;12.68;;;;;;;10.26;90.52;99838.75;4822313;29;20058;-81
2024/02/18 17:41:17;;;;;;;16.73;13.82;;;;;;;10.28;91.00;99842.16;4806645;29;20054;-79
2024/02/18 17:43:43;;;;;;;13.52;12.13;;;;;;;10.35;91.10;99844.47;4822698;29;20550;-79
2024/02/18 17:46:10;;;;;;;14.13;12.70;;;;;;;10.42;91.02;99832.63;4822765;29;20050;-81
2024/02/18 17:48:38;;;;;;;14.02;12.52;;;;;;;10.48;91.14;99826.22;4822816;29;20106;-80
2024/02/18 17:51:06;;;;;;;13.13;11.77;;;;;;;10.53;91.27;99834.72;4805748;29;20082;-81
2024/02/18 17:53:33;;;;;;;12.30;11.10;;;;;;;10.58;91.46;99831.84;4806297;29;20062;-80
2024/02/18 17:55:59;;;;;;;11.25;10.00;;;;;;;10.65;91.55;99823.50;4806073;29;20138;-80
2024/02/18 17:58:26;;;;;;;10.55;9.55;;;;;;;10.71;91.84;99816.19;4822684;29;20046;-80
2024/02/18 18:00:52;;;;;;;10.10;9.10;;;;;;;10.76;91.90;99819.44;4822317;29;20070;-79
2024/02/18 18:03:19;;;;;;;8.95;8.02;;;;;;;10.84;91.88;99837.41;4822526;29;20058;-80
2024/02/18 18:05:46;;;;;;;8.05;7.18;;;;;;;10.89;91.80;99817.78;4822592;29;20563;-80
2024/02/18 18:08:12;;;;;;;6.95;6.18;;;;;;;10.95;91.80;99825.31;4822306;29;20488;-80
2024/02/18 18:10:39;;;;;;;6.28;5.68;;;;;;;11.04;91.73;99823.09;4822542;29;20066;-81
2024/02/18 18:13:06;;;;;;;6.78;6.10;;;;;;;11.07;91.60;99815.03;4822392;29;20127;-80
2024/02/18 18:15:32;;;;;;;5.70;5.07;;;;;;;11.15;91.49;99822.47;4822350;29;20087;-81
2024/02/18 18:17:59;;;;;;;5.30;4.80;;;;;;;11.20;91.09;99812.50;4822165;29;20145;-80
2024/02/18 18:20:26;;;;;;;4.82;4.32;;;;;;;11.25;91.18;99813.06;4822637;29;20085;-80
2024/02/18 18:22:54;;;;;;;5.38;4.50;;;;;;;11.30;90.84;99802.28;4821440;29;20110;-82
2024/02/18 18:25:21;;;;;;;4.70;4.30;;;;;;;11.33;90.64;99808.19;4822181;29;20050;-81
2024/02/18 18:27:47;;;;;;;4.32;3.92;;;;;;;11.35;90.67;99794.94;4820768;29;20460;-80
2024/02/18 18:30:14;;;;;;;3.80;3.50;;;;;;;11.38;90.22;99796.53;4822262;29;20066;-80
2024/02/18 18:32:43;;;;;;;3.40;3.10;;;;;;;11.40;90.23;99798.13;4806094;29;20058;-80
2024/02/18 18:35:09;;;;;;;3.90;3.33;;;;;;;11.43;90.04;99803.25;4805999;29;20066;-82
2024/02/18 18:37:36;;;;;;;3.50;3.20;;;;;;;11.45;89.84;99811.88;4821126;29;20058;-80
2024/02/18 18:40:03;;;;;;;4.22;3.30;;;;;;;11.47;89.62;99803.88;4822504;29;20107;-80
2024/02/18 18:42:31;;;;;;;3.40;3.10;;;;;;;11.49;89.54;99809.94;4805751;29;20055;-81
2024/02/18 18:44:58;;;;;;;3.03;2.58;;;;;;;11.50;89.17;99801.06;4822008;29;20065;-80
2024/02/18 18:47:26;;;;;;;4.55;2.90;;;;;;;11.50;89.39;99798.44;4822169;29;20093;-82
2024/02/18 18:49:52;;;;;;;2.75;2.53;;;;;;;11.54;89.15;99799.09;4821482;29;20066;-82
2024/02/18 18:52:19;;;;;;;3.30;2.72;;;;;;;11.54;88.81;99865.00;4804517;29;20089;-82
2024/02/18 18:54:46;;;;;;;2.53;2.33;;;;;;;11.56;88.89;99784.88;4820114;29;20386;-81
2024/02/18 18:57:12;;;;;;;2.97;2.53;;;;;;;11.54;88.64;99781.50;4821075;29;20084;-83
2024/02/18 18:59:39;;;;;;;3.05;2.53;;;;;;;11.55;88.44;99783.19;4821569;29;20078;-81
2024/02/18 19:02:05;;;;;;;2.50;2.30;;;;;;;11.54;88.45;99793.81;4821587;29;20054;-80
2024/02/18 19:04:32;;;;;;;2.30;2.10;;;;;;;11.56;88.27;99798.06;4823895;29;20573;-81
2024/02/18 19:07:00;;;;;;;2.50;2.30;;;;;;;11.56;88.19;99786.69;4824484;29;20085;-81
2024/02/18 19:09:29;;;;;;;2.42;2.22;;;;;;;11.55;87.99;99788.47;4826012;29;20058;-85
2024/02/18 19:11:56;;;;;;;1.95;1.77;;;;;;;11.54;87.49;99788.56;4825698;29;20054;-81
2024/02/18 19:14:24;;;;;;;3.10;1.60;;;;;;;11.53;87.45;99790.34;4825112;29;20062;-81
2024/02/18 19:16:51;;;;;;;1.40;1.30;;;;;;;11.53;87.08;99789.50;4825928;29;20062;-80
2024/02/18 19:19:19;;;;;;;1.33;1.23;;;;;;;11.47;86.78;99793.34;4825556;29;20050;-81
2024/02/18 19:21:46;;;;;;;2.72;1.30;;;;;;;11.44;86.27;99791.75;4825349;29;20110;-81
2024/02/18 19:24:13;;;;;;;1.52;1.00;;;;;;;11.43;86.54;99799.75;4824927;29;20101;-82
2024/02/18 19:26:42;;;;;;;1.13;0.80;;;;;;;11.39;86.48;99800.88;4823636;29;20103;-81
2024/02/18 19:29:09;;;;;;;0.68;0.68;;;;;;;11.35;86.43;99792.31;4824994;29;20463;-81
2024/02/18 19:31:36;;;;;;;0.70;0.70;;;;;;;11.31;86.36;99796.91;4824655;29;20062;-80
2024/02/18 19:34:06;;;;;;;1.05;0.90;;;;;;;11.28;86.29;99797.09;4824744;29;20058;-81
2024/02/18 19:36:39;;;;;;;1.20;0.75;;;;;;;11.24;85.95;99807.88;4824723;29;20046;-81
2024/02/18 19:39:08;;;;;;;0.80;0.80;;;;;;;11.21;86.46;99801.88;4825238;29;20054;-81
2024/02/18 19:41:41;;;;;;;0.90;0.90;;;;;;;11.17;85.85;99810.03;4825232;29;20050;-81
2024/02/18 19:44:09;;;;;;;2.10;1.00;;;;;;;11.16;86.13;99821.53;4808697;29;20471;-81
2024/02/18 19:46:40;;;;;;;2.90;1.10;;;;;;;11.12;86.14;99810.34;4824386;29;20058;-83
2024/02/18 19:49:06;;;;;;;1.13;0.88;;;;;;;11.10;86.60;99821.91;4824747;29;20467;-79
2024/02/18 19:51:33;;;;;;;1.70;0.90;;;;;;;11.07;86.58;99818.50;4824396;29;20058;-82
2024/02/18 19:54:00;;;;;;;0.80;0.80;;;;;;;11.07;86.88;99818.50;4824641;29;20057;-82
2024/02/18 19:56:27;;;;;;;2.15;0.90;;;;;;;11.06;86.97;99821.22;4824583;29;20050;-81
2024/02/18 19:58:54;;;;;;;1.45;1.00;;;;;;;11.04;86.86;99820.47;4824310;29;20059;-81
2024/02/18 20:01:21;;;;;;;2.53;0.90;;;;;;;11.04;86.92;99826.59;4824465;29;20110;-80
2024/02/18 20:03:48;;;;;;;1.60;0.80;;;;;;;11.03;86.91;99832.78;4824176;29;20107;-80
2024/02/18 20:06:14;;;;;;;1.13;0.82;;;;;;;11.03;86.79;99838.03;4823410;29;20474;-82
2024/02/18 20:08:42;;;;;;;0.80;0.80;;;;;;;11.01;86.68;99845.19;4823969;29;20141;-82
2024/02/18 20:11:08;;;;;;;1.42;1.00;;;;;;;10.99;86.61;99839.16;4824475;29;20046;-81
2024/02/18 20:13:36;;;;;;;1.25;1.10;;;;;;;10.98;86.25;99849.81;4823028;29;20103;-82
2024/02/18 20:16:06;;;;;;;1.00;0.90;;;;;;;10.95;86.36;99849.03;4824130;29;20054;-81
2024/02/18 20:18:35;;;;;;;1.00;1.00;;;;;;;10.94;86.14;99854.38;4807835;29;20489;-81
2024/02/18 20:21:03;;;;;;;1.08;0.98;;;;;;;10.91;86.28;99857.19;4824294;29;20058;-82
2024/02/18 20:23:31;;;;;;;1.60;1.50;;;;;;;10.88;86.31;99863.47;4824182;29;20137;-80
2024/02/18 20:25:57;;;;;;;1.40;1.30;;;;;;;10.87;86.33;99868.84;4824051;29;20062;-81
2024/02/18 20:28:24;;;;;;;1.58;1.48;;;;;;;10.84;86.35;99872.47;4824304;29;20086;-81
2024/02/18 20:30:51;;;;;;;1.50;1.40;;;;;;;10.82;86.67;99879.63;4824268;29;20062;-82
2024/02/18 20:33:17;;;;;;;2.03;1.90;;;;;;;10.81;86.60;99880.56;4824093;29;20058;-82
2024/02/18 20:35:45;;;;;;;2.15;1.98;;;;;;;10.80;86.50;99889.38;4822895;29;20058;-81
2024/02/18 20:38:12;;;;;;;1.70;1.60;;;;;;;10.79;86.76;99885.91;4823702;29;20066;-81
2024/02/18 20:40:39;;;;;;;2.85;1.85;;;;;;;10.80;86.78;99902.53;4823833;29;20057;-83
2024/02/18 20:43:05;;;;;;;1.77;1.60;;;;;;;10.78;86.83;99910.56;4823654;29;20054;-80
2024/02/18 20:45:32;;;;;;;1.52;1.42;;;;;;;10.79;86.75;99914.03;4823518;29;20058;-81
2024/02/18 20:48:02;;;;;;;3.10;1.65;;;;;;;10.78;86.80;99917.59;4823430;29;20057;-81
2024/02/18 20:50:29;;;;;;;1.60;1.50;;;;;;;10.78;86.65;99915.81;4807486;29;20050;-79
2024/02/18 20:52:56;;;;;;;1.33;1.23;;;;;;;10.76;86.70;99922.13;4807367;29;20186;-81
2024/02/18 20:55:23;;;;;;;1.50;1.20;;;;;;;10.76;86.78;99928.22;4823559;29;20450;-81
2024/02/18 20:57:50;;;;;;;1.58;1.25;;;;;;;10.76;86.78;99928.22;4823349;29;20107;-80
2024/02/18 21:00:17;;;;;;;1.30;1.20;;;;;;;10.76;86.95;99936.09;4823482;29;20070;-82
2024/02/18 21:02:44;;;;;;;1.67;1.17;;;;;;;10.76;86.84;99946.63;4823682;29;20054;-81
2024/02/18 21:05:11;;;;;;;1.50;1.40;;;;;;;10.77;86.68;99953.59;4823514;29;20150;-81
2024/02/18 21:07:39;;;;;;;1.40;1.30;;;;;;;10.76;86.87;99970.34;4823202;29;20058;-82
2024/02/18 21:10:06;;;;;;;1.02;1.02;;;;;;;10.76;86.79;99956.34;4823364;29;20141;-82
2024/02/18 21:12:33;;;;;;;1.40;1.30;;;;;;;10.76;86.66;99974.78;4823293;29;20119;-81
2024/02/18 21:15:00;;;;;;;1.50;1.40;;;;;;;10.75;86.81;99971.28;4823534;29;20090;-82
2024/02/18 21:17:27;;;;;;;1.65;1.20;;;;;;;10.73;86.71;99973.13;4823272;29;20051;-81
2024/02/18 21:19:54;;;;;;;2.47;1.35;;;;;;;10.73;86.62;99975.75;4823338;29;20054;-82
2024/02/18 21:22:20;;;;;;;1.88;1.30;;;;;;;10.74;86.73;99984.53;4823424;29;20520;-82
2024/02/18 21:24:47;;;;;;;3.33;1.20;;;;;;;10.73;86.70;99986.28;4823172;29;20106;-82
2024/02/18 21:27:14;;;;;;;1.70;1.42;;;;;;;10.72;86.77;99995.13;4822522;29;20499;-81
2024/02/18 21:29:41;;;;;;;1.30;1.20;;;;;;;10.73;86.81;99994.19;4823042;29;20525;-80
2024/02/18 21:32:07;;;;;;;1.35;1.25;;;;;;;10.73;86.78;100007.34;4823241;29;20051;-82
2024/02/18 21:34:34;;;;;;;4.20;1.05;;;;;;;10.73;86.79;100010.00;4823076;29;20174;-83
2024/02/18 21:37:02;;;;;;;1.63;1.17;;;;;;;10.73;86.86;100004.72;4821459;29;20058;-82
2024/02/18 21:39:28;;;;;;;2.53;1.02;;;;;;;10.73;86.80;100015.25;4822895;29;20520;-82
2024/02/18 21:42:09;;;;;;;1.25;1.15;;;;;;;10.73;86.62;100012.63;4823182;29;20062;-81
2024/02/18 21:44:36;;;;;;;1.55;1.17;;;;;;;10.73;86.95;100017.06;4822686;29;20089;-81
2024/02/18 21:47:02;;;;;;;1.25;1.15;;;;;;;10.73;86.77;100022.31;4822700;29;20474;-82
2024/02/18 21:49:29;;;;;;;1.13;1.05;;;;;;;10.74;86.82;100010.84;4823041;29;20197;-82
2024/02/18 21:54:31;;;;;;;1.27;1.17;;;;;;;10.74;86.96;100016.97;5457360;24;20255;-76
2024/02/18 21:56:58;;;;;;;1.40;1.23;;;;;;;10.75;86.75;100020.44;4822975;29;20087;-76
2024/02/18 21:59:25;;;;;;;1.70;1.60;;;;;;;10.75;86.52;100023.06;4823236;29;20093;-77
2024/02/18 22:01:51;;;;;;;1.30;1.20;;;;;;;10.73;86.59;100031.06;4823089;29;20061;-75
2024/02/18 22:04:19;;;;;;;1.20;1.20;;;;;;;10.73;86.79;100048.66;4822806;29;20062;-77
2024/02/18 22:06:46;;;;;;;1.35;1.25;;;;;;;10.72;86.75;100058.31;4822429;29;20058;-75
2024/02/18 22:09:36;;;;;;;1.38;1.27;;;;;;;10.73;86.65;100070.53;4823045;29;20054;-77
2024/02/18 22:12:18;;;;;;;1.42;1.33;;;;;;;10.75;86.67;100067.84;4793637;29;20054;-78
2024/02/18 22:14:45;;;;;;;1.40;1.30;;;;;;;10.74;86.67;100084.56;4822831;29;20089;-77
2024/02/18 22:17:11;;;;;;;2.00;1.45;;;;;;;10.72;86.65;100074.13;4822586;29;20111;-77
2024/02/18 22:19:41;;;;;;;1.08;1.08;;;;;;;10.70;86.51;100094.44;4822900;29;20054;-77
2024/02/18 22:22:08;;;;;;;1.23;1.13;;;;;;;10.71;86.68;100093.50;4822914;29;20137;-76
2024/02/18 22:24:34;;;;;;;1.33;1.20;;;;;;;10.70;86.67;100091.78;4822703;29;20050;-76
2024/02/18 22:27:01;;;;;;;1.20;1.13;;;;;;;10.71;86.70;100090.00;4822492;29;20066;-78
2024/02/18 22:29:28;;;;;;;1.38;1.13;;;;;;;10.70;86.63;100086.53;4822574;29;20054;-78
2024/02/18 22:31:54;;;;;;;1.30;1.20;;;;;;;10.69;86.48;100092.69;4822564;29;20077;-76
2024/02/18 22:34:21;;;;;;;1.42;1.30;;;;;;;10.68;86.46;100099.78;4822341;29;20058;-76
2024/02/18 22:36:48;;;;;;;1.20;1.10;;;;;;;10.69;86.51;100105.88;4822128;29;20058;-75
2024/02/18 22:39:14;;;;;;;1.25;1.00;;;;;;;10.67;86.24;100105.09;4821845;29;20487;-77
2024/02/18 22:41:43;;;;;;;0.90;0.90;;;;;;;10.66;86.19;100113.94;4822324;29;20073;-77
2024/02/18 22:44:10;;;;;;;1.05;0.80;;;;;;;10.65;86.31;100120.16;4822441;29;20090;-77